RJNF(METAR)
05/21 16:00
RJNF 210700Z 16004KT 9999 BKNXXX 22/13 Q1007 RMK A2975=
戻る
トップページへ戻る
IMOC Co,.Ltd.